Terminal Aerodrome Forecast
Issued by NWS Dodge City, KS

Home | Current Version | Previous Version | Graphics & Text | Print | Product List | Glossary Off
Versions: 1 2 3 4 5 6 7 8 9 10 11 12 13 14 15 16 17 18 19 20 21 22 23 24 25 26 27 28 29 30 31 32 33 34 35 36 37 38 39 40 41 42 43 44 45 46 47 48 49 50

000
FTUS43 KDDC 250537
TAFDDC
TAF
KDDC 250537Z 2506/2606 VRB06KT 6SM -TSRA BKN090CB
     FM250800 VRB05KT P6SM VCTS BKN090CB
     FM250900 VRB05KT P6SM -SHRA BKN090
      TEMPO 2509/2510 4SM TS OVC040CB
     FM251300 02007KT P6SM BKN100
     FM260200 11008KT P6SM SCT250=

USA.gov is the U.S. government's official web portal to all federal, state and local government web resources and services.